This is the latest recevied weather packets stored in our database for station/object DO1MIT-10. If no packets are shown the sender has not sent any weather packets the latest 1 day(s).
| Time | Temp. | Humidity | Pressure | Rain* | Wind** | Luminosity | Snow |
|---|---|---|---|---|---|---|---|
| 1778093429 | 13.89° C | 68% | 1008.7 hPa | - | - | - | - |
| 1778091629 | 15° C | 65% | 1008.2 hPa | - | - | - | - |
| 1778083528 | 20.56° C | 52% | 1007.8 hPa | - | - | - | - |
| 1778082628 | 21.11° C | 52% | 1007.9 hPa | - | - | - | - |
| 1778081728 | 23.89° C | 52% | 1008 hPa | - | - | - | - |
| 1778075427 | 23.33° C | 54% | 1008.4 hPa | - | - | - | - |
| 1778074527 | 21.11° C | 55% | 1008.6 hPa | - | - | - | - |
| 1778073627 | 22.22° C | 54% | 1008.5 hPa | - | - | - | - |
| 1778072727 | 23.89° C | 53% | 1008.6 hPa | - | - | - | - |
| 1778068226 | 23.33° C | 58% | 1008.9 hPa | - | - | - | - |
| 1778066426 | 22.22° C | 60% | 1008.9 hPa | - | - | - | - |
| 1778065526 | 21.67° C | 60% | 1009 hPa | - | - | - | - |
| 1778060125 | 21.11° C | 68% | 1009.1 hPa | - | - | - | - |
| 1778059225 | 20.56° C | 68% | 1008.9 hPa | - | - | - | - |
| 1778058325 | 21.11° C | 69% | 1008.8 hPa | - | - | - | - |
| 1778057425 | 20.56° C | 70% | 1008.7 hPa | - | - | - | - |
| 1778055624 | 20° C | 73% | 1008.3 hPa | - | - | - | - |
| 1778053824 | 18.89° C | 75% | 1008.1 hPa | - | - | - | - |
| 1778052024 | 18.33° C | 78% | 1008.3 hPa | - | - | - | - |
| 1778051124 | 17.78° C | 78% | 1008.4 hPa | - | - | - | - |
| 1778050224 | 16.67° C | 79% | 1008.4 hPa | - | - | - | - |
| 1778049324 | 17.22° C | 81% | 1008.4 hPa | - | - | - | - |
| 1778048424 | 16.67° C | 82% | 1008.3 hPa | - | - | - | - |
| 1778045723 | 15.56° C | 83% | 1008.1 hPa | - | - | - | - |
| 1778044823 | 15.56° C | 84% | 1008.1 hPa | - | - | - | - |
* Rain since midnight (hover to see other rain measurements)
** Current wind speed in m/s (hover to see current wind gust speed)